createdAt,value
2024-02-05T00:00:26.405Z,96795.31
2024-02-05T00:01:28.763Z,96802.06
2024-02-05T00:02:33.617Z,96808.16
2024-02-05T00:03:35.884Z,96810.81
2024-02-05T00:04:40.943Z,96807.22
2024-02-05T00:05:43.137Z,96807.31
2024-02-05T00:06:47.984Z,96807.31
2024-02-05T00:07:51.859Z,96814.22
2024-02-05T00:08:58.328Z,96809.91
2024-02-05T00:10:06.862Z,96804.72
2024-02-05T00:11:11.660Z,96805.66
2024-02-05T00:12:13.919Z,96802.06
2024-02-05T00:13:18.790Z,96806.38
2024-02-05T00:14:20.975Z,96796.97
2024-02-05T00:15:25.718Z,96806.38
2024-02-05T00:16:27.844Z,96809.72
2024-02-05T00:17:30.046Z,96796.84
2024-02-05T00:18:35.422Z,96808.06
2024-02-05T00:19:37.837Z,96807.28
2024-02-05T00:20:42.635Z,96801.16
2024-02-05T00:21:44.765Z,96805.41
2024-02-05T00:22:49.513Z,96810.44
2024-02-05T00:23:51.787Z,96813.03
2024-02-05T00:24:56.643Z,96808.06
2024-02-05T00:26:01.749Z,96809.91
2024-02-05T00:27:06.846Z,96812.63
2024-02-05T00:28:09.297Z,96816.94
2024-02-05T00:29:14.186Z,96814.38
2024-02-05T00:30:17.041Z,96813.38
2024-02-05T00:31:21.830Z,96827.00
2024-02-05T00:32:24.052Z,96818.50
2024-02-05T00:33:29.031Z,96808.97
2024-02-05T00:34:32.049Z,96809.88
2024-02-05T00:35:36.920Z,96820.81
2024-02-05T00:36:39.757Z,96817.22
2024-02-05T00:37:44.508Z,96807.88
2024-02-05T00:38:46.626Z,96818.31
2024-02-05T00:39:51.473Z,96807.22
2024-02-05T00:40:54.928Z,96809.84
2024-02-05T00:42:02.249Z,96808.03
2024-02-05T00:43:05.189Z,96808.03
2024-02-05T00:44:09.957Z,96807.22
2024-02-05T00:45:13.378Z,96805.41
2024-02-05T00:46:24.886Z,96807.22
2024-02-05T00:47:28.701Z,96810.69
2024-02-05T00:48:33.796Z,96815.72
2024-02-05T00:49:36.244Z,96814.78
2024-02-05T00:50:42.944Z,96805.16
2024-02-05T00:51:45.400Z,96805.28
2024-02-05T00:52:50.249Z,96809.63
2024-02-05T00:53:52.455Z,96811.22
2024-02-05T00:54:57.341Z,96813.88
2024-02-05T00:55:59.626Z,96811.16
2024-02-05T00:57:07.430Z,96810.16
2024-02-05T00:58:09.698Z,96820.47
2024-02-05T00:59:14.928Z,96811.88
2024-02-05T01:00:19.603Z,96812.63
2024-02-05T01:01:25.138Z,96819.59
2024-02-05T01:02:28.168Z,96816.38
2024-02-05T01:03:33.018Z,96815.53
2024-02-05T01:04:35.740Z,96820.75
2024-02-05T01:05:40.955Z,96811.31
2024-02-05T01:06:43.637Z,96811.38
2024-02-05T01:07:46.216Z,96814.06
2024-02-05T01:08:51.681Z,96819.28
2024-02-05T01:09:53.986Z,96820.38
2024-02-05T01:10:58.841Z,96825.56
2024-02-05T01:12:04.695Z,96826.41
2024-02-05T01:13:09.652Z,96830.06
2024-02-05T01:14:11.874Z,96832.81
2024-02-05T01:15:17.081Z,96829.41
2024-02-05T01:16:19.441Z,96828.56
2024-02-05T01:17:24.279Z,96834.47
2024-02-05T01:18:26.625Z,96839.53
2024-02-05T01:19:29.008Z,96836.06
2024-02-05T01:20:34.017Z,96839.53
2024-02-05T01:21:36.530Z,96840.44
2024-02-05T01:22:39.538Z,96845.38
2024-02-05T01:23:44.340Z,96848.00
2024-02-05T01:24:46.794Z,96854.75
2024-02-05T01:25:51.715Z,96850.53
2024-02-05T01:26:53.942Z,96853.03
2024-02-05T01:28:01.761Z,96856.44
2024-02-05T01:29:03.977Z,96843.63
2024-02-05T01:30:09.657Z,96843.59
2024-02-05T01:31:12.171Z,96853.03
2024-02-05T01:32:17.493Z,96849.53
2024-02-05T01:33:19.785Z,96852.19
2024-02-05T01:34:24.847Z,96859.91
2024-02-05T01:35:27.189Z,96856.50
2024-02-05T01:36:32.701Z,96856.50
2024-02-05T01:37:34.833Z,96853.03
2024-02-05T01:38:39.625Z,96852.13
2024-02-05T01:39:41.873Z,96857.19
2024-02-05T01:40:46.728Z,96860.78
2024-02-05T01:41:48.909Z,96852.19
2024-02-05T01:42:53.710Z,96848.72
2024-02-05T01:43:58.623Z,96851.13
2024-02-05T01:45:03.363Z,96847.69
2024-02-05T01:46:06.477Z,96847.63
2024-02-05T01:47:11.660Z,96845.88
2024-02-05T01:48:17.348Z,96839.38
2024-02-05T01:49:22.591Z,96847.97
2024-02-05T01:50:25.220Z,96840.97
2024-02-05T01:51:30.139Z,96835.06
2024-02-05T01:52:34.925Z,96845.28
2024-02-05T01:53:40.363Z,96839.28
2024-02-05T01:54:43.562Z,96841.78
2024-02-05T01:55:51.842Z,96858.00
2024-02-05T01:56:56.307Z,96847.84
2024-02-05T01:58:01.813Z,96849.53
2024-02-05T01:59:07.893Z,96848.72
2024-02-05T02:00:16.089Z,96832.41
2024-02-05T02:01:18.827Z,96863.25
2024-02-05T02:02:24.907Z,96864.06
2024-02-05T02:03:28.226Z,96859.84
2024-02-05T02:04:34.351Z,96851.22
2024-02-05T02:05:37.442Z,96863.34
2024-02-05T02:06:41.988Z,96868.47
2024-02-05T02:07:47.231Z,96846.13
2024-02-05T02:08:49.815Z,96859.16
2024-02-05T02:09:54.829Z,96853.03
2024-02-05T02:10:57.615Z,96847.94
2024-02-05T02:12:03.579Z,96854.75
2024-02-05T02:13:06.001Z,96827.34
2024-02-05T02:14:13.676Z,96863.47
2024-02-05T02:15:16.186Z,96848.09
2024-02-05T02:16:26.033Z,96851.66
2024-02-05T02:17:30.817Z,96836.19
2024-02-05T02:18:38.442Z,96849.94
2024-02-05T02:19:45.307Z,96849.00
2024-02-05T02:20:50.928Z,96848.19
2024-02-05T02:21:59.724Z,96842.88
2024-02-05T02:23:10.530Z,96848.22
2024-02-05T02:24:15.635Z,96840.44
2024-02-05T02:25:20.695Z,96850.69
2024-02-05T02:26:22.954Z,96843.84
2024-02-05T02:27:27.897Z,96849.69
2024-02-05T02:28:30.166Z,96846.28
2024-02-05T02:29:34.984Z,96844.53
2024-02-05T02:30:41.040Z,96842.03
2024-02-05T02:31:49.149Z,96831.59
2024-02-05T02:33:00.678Z,96828.25
2024-02-05T02:34:14.355Z,96834.28
2024-02-05T02:35:26.034Z,96835.94
2024-02-05T02:36:32.629Z,96841.13
2024-02-05T02:37:41.597Z,96823.09
2024-02-05T02:38:50.296Z,96829.25
2024-02-05T02:40:00.295Z,96814.66
2024-02-05T02:41:08.929Z,96848.09
2024-02-05T02:42:12.447Z,96833.63
2024-02-05T02:43:18.850Z,96831.13
2024-02-05T02:44:22.270Z,96824.19
2024-02-05T02:45:27.917Z,96834.56
2024-02-05T02:46:30.608Z,96846.34
2024-02-05T02:47:35.416Z,96824.09
2024-02-05T02:48:37.784Z,96843.94
2024-02-05T02:49:42.756Z,96832.81
2024-02-05T02:50:44.892Z,96841.50
2024-02-05T02:51:49.716Z,96839.84
2024-02-05T02:52:51.915Z,96846.69
2024-02-05T02:53:56.688Z,96828.78
2024-02-05T02:55:01.767Z,96841.59
2024-02-05T02:56:08.229Z,96832.34
2024-02-05T02:57:10.352Z,96829.84
2024-02-05T02:58:15.422Z,96841.91
2024-02-05T02:59:17.959Z,96834.97
2024-02-05T03:00:23.208Z,96836.66
2024-02-05T03:01:25.636Z,96829.97
2024-02-05T03:02:30.432Z,96841.13
2024-02-05T03:03:33.135Z,96839.47
2024-02-05T03:04:37.955Z,96840.31
2024-02-05T03:05:40.253Z,96844.59
2024-02-05T03:06:45.110Z,96835.28
2024-02-05T03:07:47.500Z,96836.19
2024-02-05T03:08:52.306Z,96839.59
2024-02-05T03:09:55.214Z,96832.84
2024-02-05T03:11:02.895Z,96828.66
2024-02-05T03:12:05.888Z,96835.63
2024-02-05T03:13:11.344Z,96839.06
2024-02-05T03:14:13.510Z,96835.66
2024-02-05T03:15:18.293Z,96845.88
2024-02-05T03:16:20.514Z,96845.03
2024-02-05T03:17:25.331Z,96845.94
2024-02-05T03:18:27.540Z,96837.31
2024-02-05T03:19:33.355Z,96838.97
2024-02-05T03:20:37.349Z,96834.78
2024-02-05T03:21:42.191Z,96844.22
2024-02-05T03:22:50.152Z,96844.22
2024-02-05T03:23:57.964Z,96847.69
2024-02-05T03:25:00.178Z,96839.13
2024-02-05T03:26:07.994Z,96833.16
2024-02-05T03:27:10.769Z,96851.22
2024-02-05T03:28:15.637Z,96845.16
2024-02-05T03:29:17.847Z,96841.81
2024-02-05T03:30:20.029Z,96842.59
2024-02-05T03:31:24.896Z,96843.53
2024-02-05T03:32:27.206Z,96849.53
2024-02-05T03:33:31.953Z,96834.19
2024-02-05T03:34:34.350Z,96835.91
2024-02-05T03:35:37.722Z,96841.97
2024-02-05T03:36:42.592Z,96836.81
2024-02-05T03:37:44.783Z,96841.13
2024-02-05T03:38:49.472Z,96841.22
2024-02-05T03:39:51.736Z,96840.31
2024-02-05T03:40:56.508Z,96834.31
2024-02-05T03:42:01.298Z,96854.06
2024-02-05T03:43:06.229Z,96852.25
2024-02-05T03:44:08.441Z,96854.84
2024-02-05T03:45:13.398Z,96841.91
2024-02-05T03:46:15.662Z,96838.50
2024-02-05T03:47:20.547Z,96841.97
2024-02-05T03:48:22.897Z,96847.03
2024-02-05T03:49:27.684Z,96835.03
2024-02-05T03:50:32.192Z,96848.78
2024-02-05T03:51:38.195Z,96844.50
2024-02-05T03:52:41.397Z,96842.78
2024-02-05T03:53:48.196Z,96840.28
2024-02-05T03:54:50.371Z,96841.19
2024-02-05T03:55:55.164Z,96842.94
2024-02-05T03:56:59.970Z,96853.28
2024-02-05T03:58:07.939Z,96844.72
2024-02-05T03:59:11.392Z,96853.34
2024-02-05T04:00:17.148Z,96846.47
2024-02-05T04:01:19.447Z,96847.41
2024-02-05T04:02:26.678Z,96842.25
2024-02-05T04:03:28.913Z,96846.50
2024-02-05T04:04:33.884Z,96845.59
2024-02-05T04:05:36.264Z,96846.53
2024-02-05T04:06:41.115Z,96841.41
2024-02-05T04:07:43.640Z,96847.38
2024-02-05T04:08:48.937Z,96842.25
2024-02-05T04:09:51.039Z,96846.53
2024-02-05T04:10:55.902Z,96844.03
2024-02-05T04:11:58.051Z,96840.63
2024-02-05T04:13:02.853Z,96838.94
2024-02-05T04:14:11.479Z,96848.41
2024-02-05T04:15:16.555Z,96840.75
2024-02-05T04:16:18.779Z,96845.06
2024-02-05T04:17:23.550Z,96849.31
2024-02-05T04:18:25.711Z,96856.31
2024-02-05T04:19:30.582Z,96854.72
2024-02-05T04:20:32.772Z,96851.34
2024-02-05T04:21:37.844Z,96871.09
2024-02-05T04:22:40.051Z,96865.34
2024-02-05T04:23:44.734Z,96856.03
2024-02-05T04:24:46.840Z,96869.78
2024-02-05T04:25:51.597Z,96863.84
2024-02-05T04:26:53.742Z,96864.69
2024-02-05T04:27:58.450Z,96863.91
2024-02-05T04:29:00.885Z,96868.22
2024-02-05T04:30:09.858Z,96875.91
2024-02-05T04:31:14.172Z,96873.41
2024-02-05T04:32:19.073Z,96881.13
2024-02-05T04:33:21.247Z,96876.81
2024-02-05T04:34:23.471Z,96873.47
2024-02-05T04:35:28.820Z,96869.22
2024-02-05T04:36:33.529Z,96881.13
2024-02-05T04:37:35.754Z,96883.78
2024-02-05T04:38:40.528Z,96888.88
2024-02-05T04:39:42.594Z,96873.50
2024-02-05T04:40:47.461Z,96870.94
2024-02-05T04:41:49.999Z,96882.03
2024-02-05T04:42:54.741Z,96883.78
2024-02-05T04:43:57.148Z,96880.28
2024-02-05T04:45:01.839Z,96883.69
2024-02-05T04:46:08.951Z,96878.50
2024-02-05T04:47:13.749Z,96885.34
2024-02-05T04:48:21.394Z,96867.31
2024-02-05T04:49:26.456Z,96882.69
2024-02-05T04:50:28.779Z,96885.22
2024-02-05T04:51:33.661Z,96877.50
2024-02-05T04:52:35.831Z,96871.41
2024-02-05T04:53:40.594Z,96876.53
2024-02-05T04:54:44.899Z,96880.72
2024-02-05T04:55:50.131Z,96881.56
2024-02-05T04:56:52.312Z,96875.56
2024-02-05T04:57:57.119Z,96884.97
2024-02-05T04:58:59.330Z,96874.56
2024-02-05T05:00:05.686Z,96876.25
2024-02-05T05:01:12.928Z,96876.25
2024-02-05T05:02:18.138Z,96872.78
2024-02-05T05:03:20.369Z,96875.28
2024-02-05T05:04:26.357Z,96873.56
2024-02-05T05:05:29.013Z,96871.81
2024-02-05T05:06:33.743Z,96875.28
2024-02-05T05:07:35.958Z,96874.31
2024-02-05T05:08:40.692Z,96874.25
2024-02-05T05:09:42.866Z,96863.97
2024-02-05T05:10:47.959Z,96871.69
2024-02-05T05:11:50.074Z,96863.06
2024-02-05T05:12:52.410Z,96866.50
2024-02-05T05:13:57.335Z,96871.63
2024-02-05T05:14:59.485Z,96858.75
2024-02-05T05:16:05.833Z,96869.88
2024-02-05T05:17:10.760Z,96860.44
2024-02-05T05:18:15.803Z,96867.28
2024-02-05T05:19:19.172Z,96864.59
2024-02-05T05:20:24.079Z,96864.59
2024-02-05T05:21:28.310Z,96862.88
2024-02-05T05:22:33.285Z,96861.13
2024-02-05T05:23:35.428Z,96853.28
2024-02-05T05:24:40.528Z,96860.09
2024-02-05T05:25:43.982Z,96868.63
2024-02-05T05:26:48.715Z,96866.88
2024-02-05T05:27:51.043Z,96859.19
2024-02-05T05:28:56.237Z,96860.03
2024-02-05T05:29:58.429Z,96864.22
2024-02-05T05:31:03.983Z,96854.78
2024-02-05T05:32:06.999Z,96868.53
2024-02-05T05:33:14.390Z,96877.91
2024-02-05T05:34:16.762Z,96863.25
2024-02-05T05:35:21.731Z,96876.97
2024-02-05T05:36:24.502Z,96857.25
2024-02-05T05:37:29.371Z,96864.94
2024-02-05T05:38:31.675Z,96863.25
2024-02-05T05:39:36.703Z,96855.53
2024-02-05T05:40:39.118Z,96862.44
2024-02-05T05:41:43.866Z,96877.81
2024-02-05T05:42:46.117Z,96868.34
2024-02-05T05:43:53.633Z,96875.22
2024-02-05T05:44:55.845Z,96863.13
2024-02-05T05:46:01.179Z,96871.81
2024-02-05T05:47:03.958Z,96860.81
2024-02-05T05:48:11.545Z,96866.81
2024-02-05T05:49:16.675Z,96870.34
2024-02-05T05:50:21.693Z,96863.44
2024-02-05T05:51:23.911Z,96866.22
2024-02-05T05:52:26.938Z,96867.19
2024-02-05T05:53:31.869Z,96871.50
2024-02-05T05:54:34.087Z,96878.38
2024-02-05T05:55:38.971Z,96869.78
2024-02-05T05:56:41.098Z,96869.84
2024-02-05T05:57:45.799Z,96865.66
2024-02-05T05:58:48.319Z,96870.78
2024-02-05T05:59:53.223Z,96852.78
2024-02-05T06:00:55.480Z,96871.63
2024-02-05T06:02:00.469Z,96864.81
2024-02-05T06:03:07.669Z,96869.03
2024-02-05T06:04:09.883Z,96866.47
2024-02-05T06:05:17.498Z,96864.75
2024-02-05T06:06:19.662Z,96865.47
2024-02-05T06:07:24.645Z,96865.44
2024-02-05T06:08:26.808Z,96865.47
2024-02-05T06:09:32.094Z,96856.81
2024-02-05T06:10:34.860Z,96859.41
2024-02-05T06:11:39.725Z,96859.47
2024-02-05T06:12:42.369Z,96854.31
2024-02-05T06:13:47.258Z,96854.34
2024-02-05T06:14:49.371Z,96846.63
2024-02-05T06:15:54.152Z,96855.19
2024-02-05T06:16:56.456Z,96849.94
2024-02-05T06:18:01.233Z,96848.28
2024-02-05T06:19:03.502Z,96849.13
2024-02-05T06:20:12.923Z,96850.91
2024-02-05T06:21:20.041Z,96849.97
2024-02-05T06:22:24.821Z,96841.47
2024-02-05T06:23:27.744Z,96847.38
2024-02-05T06:24:33.520Z,96855.09
2024-02-05T06:25:35.674Z,96853.44
2024-02-05T06:26:40.439Z,96848.22
2024-02-05T06:27:42.745Z,96856.06
2024-02-05T06:28:47.535Z,96855.28
2024-02-05T06:29:49.781Z,96858.75
2024-02-05T06:30:52.179Z,96859.47
2024-02-05T06:31:56.943Z,96859.56
2024-02-05T06:32:59.105Z,96860.38
2024-02-05T06:34:08.578Z,96860.31
2024-02-05T06:35:12.636Z,96870.66
2024-02-05T06:36:15.077Z,96866.41
2024-02-05T06:37:23.050Z,96868.88
2024-02-05T06:38:25.315Z,96863.00
2024-02-05T06:39:30.240Z,96863.97
2024-02-05T06:40:32.466Z,96854.53
2024-02-05T06:41:39.054Z,96866.50
2024-02-05T06:42:41.230Z,96867.38
2024-02-05T06:43:47.651Z,96867.44
2024-02-05T06:44:50.444Z,96869.09
2024-02-05T06:45:55.461Z,96862.25
2024-02-05T06:46:57.617Z,96860.56
2024-02-05T06:48:02.496Z,96874.31
2024-02-05T06:49:04.801Z,96857.16
2024-02-05T06:50:13.154Z,96857.09
2024-02-05T06:51:18.365Z,96858.88
2024-02-05T06:52:25.918Z,96862.25
2024-02-05T06:53:28.440Z,96858.81
2024-02-05T06:54:34.293Z,96860.50
2024-02-05T06:55:36.693Z,96856.19
2024-02-05T06:56:41.914Z,96864.75
2024-02-05T06:57:44.047Z,96858.69
2024-02-05T06:58:48.779Z,96860.44
2024-02-05T06:59:51.454Z,96859.53
2024-02-05T07:00:56.227Z,96850.97
2024-02-05T07:01:58.733Z,96862.88
2024-02-05T07:03:04.058Z,96851.63
2024-02-05T07:04:06.545Z,96867.97
2024-02-05T07:05:13.444Z,96862.75
2024-02-05T07:06:15.646Z,96863.59
2024-02-05T07:07:20.910Z,96862.75
2024-02-05T07:08:25.725Z,96863.66
2024-02-05T07:09:30.532Z,96864.44
2024-02-05T07:10:32.986Z,96867.06
2024-02-05T07:11:39.038Z,96867.78
2024-02-05T07:12:41.658Z,96872.16
2024-02-05T07:13:46.340Z,96866.16
2024-02-05T07:14:48.524Z,96879.09
2024-02-05T07:15:53.270Z,96872.97
2024-02-05T07:16:55.480Z,96873.03
2024-02-05T07:18:00.228Z,96870.47
2024-02-05T07:19:02.520Z,96879.88
2024-02-05T07:20:08.709Z,96879.09
2024-02-05T07:21:11.043Z,96874.78
2024-02-05T07:22:17.013Z,96880.00
2024-02-05T07:23:19.225Z,96880.00
2024-02-05T07:24:26.632Z,96884.28
2024-02-05T07:25:30.247Z,96888.53
2024-02-05T07:26:39.785Z,96894.53
2024-02-05T07:27:42.067Z,96889.31
2024-02-05T07:28:46.809Z,96892.75
2024-02-05T07:29:48.953Z,96898.72
2024-02-05T07:30:53.872Z,96897.03
2024-02-05T07:31:56.228Z,96897.09
2024-02-05T07:33:00.917Z,96896.19
2024-02-05T07:34:03.117Z,96895.28
2024-02-05T07:35:08.911Z,96894.47
2024-02-05T07:36:11.502Z,96899.72
2024-02-05T07:37:16.621Z,96899.72
2024-02-05T07:38:20.272Z,96903.97
2024-02-05T07:39:27.946Z,96903.13
2024-02-05T07:40:30.144Z,96906.56
2024-02-05T07:41:34.876Z,96904.81
2024-02-05T07:42:37.051Z,96906.56
2024-02-05T07:43:42.818Z,96915.06
2024-02-05T07:44:45.240Z,96902.19
2024-02-05T07:45:50.325Z,96908.22
2024-02-05T07:46:52.980Z,96908.16
2024-02-05T07:47:58.088Z,96905.72
2024-02-05T07:49:00.339Z,96906.56
2024-02-05T07:50:05.231Z,96903.03
2024-02-05T07:51:07.434Z,96898.72
2024-02-05T07:52:12.409Z,96898.69
2024-02-05T07:53:14.876Z,96897.81
2024-02-05T07:54:20.603Z,96896.91
2024-02-05T07:55:25.342Z,96897.03
2024-02-05T07:56:29.987Z,96898.59
2024-02-05T07:57:32.262Z,96902.06
2024-02-05T07:58:37.129Z,96902.91
2024-02-05T07:59:39.272Z,96895.16
2024-02-05T08:00:46.664Z,96903.69
2024-02-05T08:01:49.045Z,96901.16
2024-02-05T08:02:53.817Z,96903.69
2024-02-05T08:03:56.170Z,96901.00
2024-02-05T08:04:58.483Z,96904.31
2024-02-05T08:06:07.922Z,96896.56
2024-02-05T08:07:10.272Z,96897.34
2024-02-05T08:08:15.086Z,96898.31
2024-02-05T08:09:17.506Z,96899.09
2024-02-05T08:10:22.526Z,96901.66
2024-02-05T08:11:27.454Z,96894.00
2024-02-05T08:12:32.147Z,96903.41
2024-02-05T08:13:34.313Z,96881.97
2024-02-05T08:14:39.203Z,96906.06
2024-02-05T08:15:42.115Z,96890.47
2024-02-05T08:16:47.098Z,96899.09
2024-02-05T08:17:49.355Z,96901.47
2024-02-05T08:18:54.832Z,96892.22
2024-02-05T08:19:57.050Z,96892.97
2024-02-05T08:21:01.851Z,96890.97
2024-02-05T08:22:04.215Z,96891.81
2024-02-05T08:23:09.082Z,96887.53
2024-02-05T08:24:11.254Z,96892.53
2024-02-05T08:25:16.206Z,96893.44
2024-02-05T08:26:18.792Z,96889.06
2024-02-05T08:27:26.102Z,96890.09
2024-02-05T08:28:28.252Z,96892.56
2024-02-05T08:29:32.977Z,96893.31
2024-02-05T08:30:35.266Z,96894.09
2024-02-05T08:31:40.962Z,96897.41
2024-02-05T08:32:43.196Z,96893.19
2024-02-05T08:33:47.990Z,96900.13
2024-02-05T08:34:50.245Z,96900.22
2024-02-05T08:35:55.165Z,96897.72
2024-02-05T08:36:57.362Z,96894.91
2024-02-05T08:37:59.638Z,96902.63
2024-02-05T08:39:04.548Z,96903.09
2024-02-05T08:40:08.537Z,96893.78
2024-02-05T08:41:13.945Z,96891.50
2024-02-05T08:42:21.583Z,96891.50
2024-02-05T08:43:36.504Z,96887.78
2024-02-05T08:44:38.664Z,96890.28
2024-02-05T08:45:43.588Z,96893.56
2024-02-05T08:46:45.789Z,96892.50
2024-02-05T08:47:50.949Z,96881.56
2024-02-05T08:48:53.215Z,96884.91
2024-02-05T08:49:58.076Z,96875.28
2024-02-05T08:51:00.238Z,96883.91
2024-02-05T08:52:05.123Z,96887.34
2024-02-05T08:53:08.276Z,96887.19
2024-02-05T08:54:14.114Z,96890.00
2024-02-05T08:55:16.279Z,96880.38
2024-02-05T08:56:21.051Z,96873.72
2024-02-05T08:57:25.256Z,96871.16
2024-02-05T08:58:27.993Z,96888.19
2024-02-05T08:59:35.488Z,96882.97
2024-02-05T09:00:37.584Z,96873.88
2024-02-05T09:01:43.725Z,96877.13
2024-02-05T09:02:46.650Z,96880.38
2024-02-05T09:03:51.547Z,96874.53
2024-02-05T09:04:53.741Z,96876.88
2024-02-05T09:06:00.189Z,96877.19
2024-02-05T09:07:02.664Z,96883.03
2024-02-05T09:08:08.453Z,96877.06
2024-02-05T09:09:11.101Z,96888.94
2024-02-05T09:10:15.822Z,96879.31
2024-02-05T09:11:20.136Z,96877.47
2024-02-05T09:12:24.911Z,96885.19
2024-02-05T09:13:27.131Z,96882.22
2024-02-05T09:14:31.935Z,96881.19
2024-02-05T09:15:37.259Z,96876.72
2024-02-05T09:16:41.938Z,96880.63
2024-02-05T09:17:44.113Z,96875.81
2024-02-05T09:18:48.978Z,96883.47
2024-02-05T09:19:52.195Z,96885.97
2024-02-05T09:20:56.994Z,96884.31
2024-02-05T09:21:59.277Z,96886.72
2024-02-05T09:23:03.987Z,96883.47
2024-02-05T09:24:06.765Z,96886.91
2024-02-05T09:25:11.564Z,96892.09
2024-02-05T09:26:13.712Z,96882.66
2024-02-05T09:27:18.670Z,96888.47
2024-02-05T09:28:22.369Z,96884.25
2024-02-05T09:29:27.355Z,96886.66
2024-02-05T09:30:29.460Z,96879.81
2024-02-05T09:31:36.796Z,96889.81
2024-02-05T09:32:39.138Z,96881.06
2024-02-05T09:33:43.923Z,96879.72
2024-02-05T09:34:46.137Z,96886.63
2024-02-05T09:35:51.007Z,96885.63
2024-02-05T09:36:53.221Z,96880.75
2024-02-05T09:37:57.995Z,96894.63
2024-02-05T09:39:00.153Z,96882.97
2024-02-05T09:40:04.906Z,96884.13
2024-02-05T09:41:08.326Z,96881.41
2024-02-05T09:42:15.272Z,96883.97
2024-02-05T09:43:20.110Z,96889.06
2024-02-05T09:44:30.519Z,96889.16
2024-02-05T09:45:36.660Z,96890.72
2024-02-05T09:46:47.748Z,96892.91
2024-02-05T09:47:51.916Z,96877.59
2024-02-05T09:48:58.540Z,96880.56
2024-02-05T09:50:02.369Z,96892.66
2024-02-05T09:51:08.232Z,96893.56
2024-02-05T09:52:12.536Z,96893.53
2024-02-05T09:53:18.421Z,96890.94
2024-02-05T09:54:22.830Z,96888.94
2024-02-05T09:55:29.564Z,96891.31
2024-02-05T09:56:35.687Z,96886.81
2024-02-05T09:57:41.303Z,96887.53
2024-02-05T09:58:43.574Z,96889.88
2024-02-05T09:59:45.797Z,96881.25
2024-02-05T10:00:50.674Z,96880.38
2024-02-05T10:01:57.088Z,96898.50
2024-02-05T10:03:03.395Z,96884.31
2024-02-05T10:04:09.361Z,96889.28
2024-02-05T10:05:18.762Z,96892.44
2024-02-05T10:06:24.232Z,96886.84
2024-02-05T10:07:30.744Z,96881.22
2024-02-05T10:08:33.602Z,96882.75
2024-02-05T10:09:40.437Z,96888.00
2024-02-05T10:10:45.641Z,96876.84
2024-02-05T10:11:53.561Z,96881.81
2024-02-05T10:12:57.879Z,96882.22
2024-02-05T10:14:03.271Z,96867.16
2024-02-05T10:15:07.054Z,96877.50
2024-02-05T10:16:09.402Z,96881.66
2024-02-05T10:17:17.001Z,96879.06
2024-02-05T10:18:19.252Z,96880.97
2024-02-05T10:19:22.740Z,96878.41
2024-02-05T10:20:34.455Z,96878.94
2024-02-05T10:21:36.980Z,96871.81
2024-02-05T10:22:48.116Z,96870.28
2024-02-05T10:23:53.916Z,96873.09
2024-02-05T10:25:01.129Z,96864.88
2024-02-05T10:26:04.338Z,96877.53
2024-02-05T10:27:09.346Z,96870.81
2024-02-05T10:28:11.557Z,96870.47
2024-02-05T10:29:16.278Z,96865.66
2024-02-05T10:30:18.802Z,96869.47
2024-02-05T10:31:23.674Z,96875.16
2024-02-05T10:32:28.904Z,96871.19
2024-02-05T10:33:34.108Z,96877.09
2024-02-05T10:34:36.630Z,96873.47
2024-02-05T10:35:42.882Z,96860.25
2024-02-05T10:36:45.116Z,96861.06
2024-02-05T10:37:49.865Z,96850.72
2024-02-05T10:38:52.638Z,96859.94
2024-02-05T10:40:07.025Z,96861.00
2024-02-05T10:41:09.644Z,96867.72
2024-02-05T10:42:16.568Z,96858.78
2024-02-05T10:43:19.089Z,96863.13
2024-02-05T10:44:33.939Z,96860.56
2024-02-05T10:45:43.163Z,96861.41
2024-02-05T10:46:51.975Z,96862.31
2024-02-05T10:47:58.089Z,96864.44
2024-02-05T10:49:04.198Z,96857.75
2024-02-05T10:50:11.754Z,96851.47
2024-02-05T10:51:18.284Z,96847.13
2024-02-05T10:52:22.329Z,96851.25
2024-02-05T10:53:30.440Z,96850.03
2024-02-05T10:54:34.310Z,96850.13
2024-02-05T10:55:42.184Z,96871.44
2024-02-05T10:56:45.187Z,96859.06
2024-02-05T10:57:50.949Z,96861.06
2024-02-05T10:58:56.538Z,96858.78
2024-02-05T11:00:03.124Z,96854.75
2024-02-05T11:01:07.100Z,96838.81
2024-02-05T11:02:18.771Z,96842.25
2024-02-05T11:03:26.253Z,96845.84
2024-02-05T11:04:33.769Z,96837.91
2024-02-05T11:05:37.389Z,96830.31
2024-02-05T11:06:47.054Z,96829.63
2024-02-05T11:07:53.955Z,96814.91
2024-02-05T11:08:59.004Z,96827.94
2024-02-05T11:10:05.663Z,96822.84
2024-02-05T11:11:16.200Z,96819.41
2024-02-05T11:12:22.955Z,96819.19
2024-02-05T11:13:33.384Z,96819.78
2024-02-05T11:14:37.660Z,96805.84
2024-02-05T11:15:44.385Z,96808.41
2024-02-05T11:16:47.777Z,96810.50
2024-02-05T11:17:55.184Z,96813.25
2024-02-05T11:19:03.178Z,96801.41
2024-02-05T11:20:13.995Z,96803.19
2024-02-05T11:21:20.052Z,96800.00
2024-02-05T11:22:27.920Z,96805.56
2024-02-05T11:23:33.511Z,96784.53
2024-02-05T11:24:36.275Z,96792.19
2024-02-05T11:25:41.111Z,96793.25
2024-02-05T11:26:43.868Z,96790.81
2024-02-05T11:27:48.789Z,96793.00
2024-02-05T11:28:51.300Z,96790.66
2024-02-05T11:29:56.110Z,96785.34
2024-02-05T11:31:02.465Z,96788.25
2024-02-05T11:32:07.649Z,96784.97
2024-02-05T11:33:11.205Z,96773.44
2024-02-05T11:34:20.714Z,96784.13
2024-02-05T11:35:28.944Z,96782.59
2024-02-05T11:36:34.021Z,96774.22
2024-02-05T11:37:37.794Z,96777.03
2024-02-05T11:38:43.977Z,96765.22
2024-02-05T11:39:46.847Z,96781.50
2024-02-05T11:40:53.099Z,96773.66
2024-02-05T11:41:55.255Z,96770.59
2024-02-05T11:43:11.423Z,96764.91
2024-02-05T11:44:15.541Z,96770.41
2024-02-05T11:45:20.646Z,96765.53
2024-02-05T11:46:36.734Z,96757.31
2024-02-05T11:47:41.745Z,96764.03
2024-02-05T11:48:44.152Z,96767.69
2024-02-05T11:49:53.858Z,96770.56
2024-02-05T11:51:00.098Z,96760.75
2024-02-05T11:52:05.454Z,96752.91
2024-02-05T11:53:07.612Z,96756.94
2024-02-05T11:54:10.053Z,96761.81
2024-02-05T11:55:19.682Z,96761.19
2024-02-05T11:56:21.947Z,96749.09
2024-02-05T11:57:28.201Z,96741.66
2024-02-05T11:58:32.066Z,96746.16
2024-02-05T11:59:37.113Z,96751.72
2024-02-05T12:00:39.271Z,96741.81
2024-02-05T12:01:44.487Z,96741.47
2024-02-05T12:02:47.006Z,96732.69
2024-02-05T12:03:50.637Z,96736.91
2024-02-05T12:04:59.801Z,96728.00
2024-02-05T12:06:02.053Z,96736.31
2024-02-05T12:07:08.178Z,96732.00
2024-02-05T12:08:10.800Z,96732.78
2024-02-05T12:09:16.888Z,96733.41
2024-02-05T12:10:19.255Z,96728.81
2024-02-05T12:11:25.289Z,96732.72
2024-02-05T12:12:27.642Z,96724.28
2024-02-05T12:13:35.559Z,96730.44
2024-02-05T12:14:38.039Z,96731.31
2024-02-05T12:15:43.924Z,96729.72
2024-02-05T12:16:46.175Z,96726.66
2024-02-05T12:17:48.506Z,96719.25
2024-02-05T12:19:08.723Z,96729.44
2024-02-05T12:20:20.905Z,96717.72
2024-02-05T12:21:26.723Z,96731.94
2024-02-05T12:22:29.329Z,96724.47
2024-02-05T12:23:31.603Z,96722.50
2024-02-05T12:24:36.417Z,96728.97
2024-02-05T12:25:42.613Z,96726.13
2024-02-05T12:26:49.430Z,96726.72
2024-02-05T12:27:52.686Z,96720.63
2024-02-05T12:28:58.782Z,96730.75
2024-02-05T12:30:06.519Z,96715.41
2024-02-05T12:31:11.538Z,96714.19
2024-02-05T12:32:13.717Z,96708.06
2024-02-05T12:33:16.929Z,96708.16
2024-02-05T12:34:22.572Z,96704.94
2024-02-05T12:35:27.933Z,96709.22
2024-02-05T12:36:38.084Z,96701.44
2024-02-05T12:37:41.192Z,96702.69
2024-02-05T12:38:45.999Z,96705.31